Baker Lake Airport
CYBK : now visible

Airfield :











YOU CAN JOIN US ON...

 
LOGIN :

Register | Disclaimer

   EN    FR    IT 

 









Legend :    VFR   Marginal VFR   IFR   Intensive IFR   Very Intensive IFR
Visi :
Ceiling :
>= 8 km
>= 3000ft
5 to 8 km
1000 to 3000 ft
1500m to 5 km
500 to 1000 ft
800 to 1500m
200 to 500 ft
< 800m
< 200 ft
Symbols :   Thunderstorms  Fog  Heavy snow  Heavy precipitations  Wind > 20 kt






- Airport Elevation : 59 ft
- IATA code : YBK


CYBK - Baker Lake

CURRENT METAR :
  • 012300Z VRB02KT 20SM BKN064 BKN210 17/04 A2985 RMK SC5CI2 SLP110 DENSITY ALT 400FT

EXPIRED METARs :
  • 012200Z VRB02KT 20SM SCT062 BKN200 17/05 A2985 RMK SC4CI3 SLP111 DENSITY ALT 400FT
  • 011600Z 36011KT 20SM FEW011 BKN220 16/05 A2987 RMK SC1CI5 SC TR SLP118 DENSITY ALT 300FT
  • 012100Z 23004KT 150V270 20SM SCT064 BKN220 18/03 A2985 RMK SC4CI3 SLP112 DENSITY ALT 600FT

TAF TAF CYBK
Valid from the 01 at 18:00 until the 02 at 06:00 UTC


011740Z 0118/0206 02007KT P6SM FEW012 BKN220
FM012100 33010KT P6SM SCT012 BKN060 OVC220
FM020000 33008KT P6SM SCT012 BKN060 OVC120
TEMPO 0200/0206 5SM -SHRA BR BKN012 OVC060 RMK NXT FCST BY 020000Z
CZEG FIR / North America



MET'MAP, your aeronautical weather chart ! - Copyright ORBIFLY December 2007 - Disclaimer

ORBIFLY MET'MAP TEAM :

Programming & Development : Alexandra Zaïnal
Original concept : Baudouin d'Aumeries
Technical & hardware support : Manuel Goepfert
Assistance : Marc-Olivier Méhu




SOURCES & CREDITS :

   NOAA       Earth
Advisory